Time;durP1;ratioP1;P1;durP2;ratioP2;P2;SDS_P1;SDS_P2;PMS_P1;PMS_P2;Temp;Humidity;BMP_temperature;BMP_pressure;BME280_temperature;BME280_humidity;BME280_pressure;Samples;Min_cycle;Max_cycle;Signal;HPM_P1;HPM_P2
2023/01/21 00:01:56;;;;;;;21.48;12.65;;;-4.80;73.50;;;;;;5039120;28;20467;-74
2023/01/21 00:04:21;;;;;;;19.20;11.73;;;-4.80;73.40;;;;;;5038990;28;20029;-75
2023/01/21 00:06:48;;;;;;;19.77;11.73;;;-4.70;73.70;;;;;;5057012;28;20021;-75
2023/01/21 00:09:13;;;;;;;17.80;10.52;;;-4.70;73.50;;;;;;5038833;28;20021;-75
2023/01/21 00:11:39;;;;;;;17.58;10.68;;;-4.70;73.50;;;;;;5038514;28;20029;-74
2023/01/21 00:14:05;;;;;;;23.15;11.82;;;-4.70;72.90;;;;;;5038256;28;20560;-75
2023/01/21 00:16:31;;;;;;;23.13;12.48;;;-4.70;72.80;;;;;;5038883;28;20116;-79
2023/01/21 00:18:57;;;;;;;18.77;11.88;;;-4.70;72.90;;;;;;5039624;28;20048;-76
2023/01/21 00:21:23;;;;;;;20.52;11.73;;;-4.70;72.70;;;;;;5038847;28;20481;-74
2023/01/21 00:23:48;;;;;;;17.95;11.38;;;-4.70;73.00;;;;;;5038510;28;20036;-76
2023/01/21 00:26:15;;;;;;;18.92;10.60;;;-4.70;73.40;;;;;;5038390;28;20484;-76
2023/01/21 00:28:42;;;;;;;18.50;10.25;;;-4.60;73.30;;;;;;5038405;28;20029;-75
2023/01/21 00:31:10;;;;;;;18.25;10.52;;;-4.60;73.90;;;;;;5038341;28;20074;-75
2023/01/21 00:33:36;;;;;;;18.20;10.63;;;-4.50;72.80;;;;;;5002339;28;20142;-75
2023/01/21 00:36:03;;;;;;;17.90;11.20;;;-4.40;72.40;;;;;;4957155;28;20030;-75
2023/01/21 00:38:29;;;;;;;19.55;11.68;;;-4.30;72.50;;;;;;4957050;28;20023;-76
2023/01/21 00:41:03;;;;;;;18.88;11.32;;;-4.30;72.20;;;;;;4957237;28;20057;-77
2023/01/21 00:43:30;;;;;;;17.23;10.88;;;-4.30;72.00;;;;;;4956826;28;20065;-75
2023/01/21 00:45:56;;;;;;;17.02;9.73;;;-4.30;71.70;;;;;;4957355;28;20117;-75
2023/01/21 00:48:21;;;;;;;17.38;10.50;;;-4.30;71.80;;;;;;4958372;28;20055;-75
2023/01/21 00:50:47;;;;;;;18.27;10.38;;;-4.40;72.10;;;;;;4975423;28;20095;-75
2023/01/21 00:53:13;;;;;;;16.70;10.13;;;-4.30;72.10;;;;;;4958075;28;20065;-83
2023/01/21 00:55:39;;;;;;;16.77;11.18;;;-4.40;71.80;;;;;;4957553;28;20038;-77
2023/01/21 00:58:04;;;;;;;17.85;10.73;;;-4.50;72.20;;;;;;4957126;28;20027;-84
2023/01/21 01:00:30;;;;;;;19.08;11.20;;;-4.40;72.40;;;;;;4957243;28;20027;-78
2023/01/21 01:02:55;;;;;;;17.10;11.05;;;-4.40;72.20;;;;;;4956696;28;20027;-77
2023/01/21 01:05:21;;;;;;;16.40;10.43;;;-4.50;71.60;;;;;;4957324;28;20055;-78
2023/01/21 01:07:49;;;;;;;19.67;11.82;;;-4.50;71.70;;;;;;4956841;28;20480;-74
2023/01/21 01:10:15;;;;;;;22.88;11.88;;;-4.50;71.60;;;;;;4956643;28;20023;-74
2023/01/21 01:12:40;;;;;;;19.70;11.77;;;-4.70;72.30;;;;;;4955067;28;20019;-76
2023/01/21 01:15:06;;;;;;;19.60;12.18;;;-4.80;72.70;;;;;;4956962;28;20030;-78
2023/01/21 01:17:32;;;;;;;21.10;13.10;;;-4.80;73.70;;;;;;4956429;28;20472;-74
2023/01/21 01:19:58;;;;;;;19.73;12.57;;;-4.90;74.00;;;;;;4956310;28;20027;-75
2023/01/21 01:22:24;;;;;;;21.35;12.98;;;-4.90;74.60;;;;;;4956683;28;20097;-77
2023/01/21 01:24:49;;;;;;;20.02;12.77;;;-5.00;75.00;;;;;;4956242;28;20114;-80
2023/01/21 01:27:15;;;;;;;21.05;13.45;;;-5.10;75.40;;;;;;4956271;28;20392;-75
2023/01/21 01:29:40;;;;;;;23.70;14.02;;;-5.10;76.00;;;;;;4956438;28;20231;-74
2023/01/21 01:32:06;;;;;;;24.60;14.07;;;-5.10;76.40;;;;;;4956159;28;20408;-74
2023/01/21 01:34:31;;;;;;;21.27;13.70;;;-5.10;76.20;;;;;;5025027;28;20045;-88
2023/01/21 01:36:57;;;;;;;22.23;14.27;;;-5.10;76.40;;;;;;5038985;28;20090;-89
2023/01/21 01:39:23;;;;;;;24.35;15.40;;;-5.10;76.40;;;;;;5040617;28;20067;-88
2023/01/21 01:41:48;;;;;;;23.30;15.10;;;-5.10;76.70;;;;;;5045424;28;20043;-90
2023/01/21 01:44:54;;;;;;;23.80;15.65;;;-5.10;76.90;;;;;;5039927;28;20031;-89
2023/01/21 01:47:24;;;;;;;26.08;15.40;;;-5.10;77.30;;;;;;5023107;28;20398;-90
2023/01/21 01:49:50;;;;;;;21.73;13.82;;;-5.10;76.10;;;;;;5041480;28;20021;-89
2023/01/21 01:52:18;;;;;;;22.35;14.05;;;-5.00;75.80;;;;;;5041602;28;20124;-90
2023/01/21 01:54:52;;;;;;;23.55;14.43;;;-5.10;75.20;;;;;;5060533;28;20025;-88
2023/01/21 01:57:20;;;;;;;24.08;14.20;;;-5.10;75.40;;;;;;5058844;28;20056;-90
2023/01/21 01:59:48;;;;;;;23.02;14.25;;;-5.10;75.60;;;;;;5079295;28;20029;-83
2023/01/21 02:02:17;;;;;;;27.00;15.93;;;-5.20;75.30;;;;;;5061416;28;20033;-87
2023/01/21 02:04:59;;;;;;;27.70;14.98;;;-5.20;75.50;;;;;;5059165;28;19997;-88
2023/01/21 02:07:29;;;;;;;23.95;14.95;;;-5.20;75.70;;;;;;5071276;28;20021;-91
2023/01/21 02:09:54;;;;;;;30.02;17.75;;;-5.30;75.20;;;;;;5040526;28;20021;-90
2023/01/21 02:12:21;;;;;;;26.50;15.32;;;-5.40;74.80;;;;;;5039459;28;20028;-91
2023/01/21 02:14:47;;;;;;;28.83;16.05;;;-5.40;74.60;;;;;;5039682;28;20034;-90
2023/01/21 02:17:31;;;;;;;24.33;15.88;;;-5.50;74.90;;;;;;5038559;28;20028;-91
2023/01/21 02:20:56;;;;;;;28.85;15.85;;;-5.60;75.30;;;;;;5038849;28;20025;-91
2023/01/21 02:24:06;;;;;;;32.10;17.45;;;-5.60;75.40;;;;;;5040105;28;20053;-90
2023/01/21 02:26:52;;;;;;;28.23;17.55;;;-5.60;74.80;;;;;;5061038;28;20033;-89
2023/01/21 02:29:38;;;;;;;33.75;18.63;;;-5.80;75.00;;;;;;5042078;28;20051;-86
2023/01/21 02:32:41;;;;;;;31.25;18.38;;;-5.80;75.30;;;;;;5043506;28;20035;-90
2023/01/21 02:35:38;;;;;;;35.33;18.27;;;-5.90;75.50;;;;;;4921237;29;20130;-90
2023/01/21 02:38:28;;;;;;;31.65;18.75;;;-5.90;75.60;;;;;;4955291;29;20031;-87
2023/01/21 02:41:22;;;;;;;33.75;19.10;;;-5.90;76.30;;;;;;4943341;28;20459;-85
2023/01/21 02:44:09;;;;;;;29.85;18.38;;;-5.90;76.40;;;;;;4954456;28;20035;-89
2023/01/21 02:46:43;;;;;;;30.15;17.67;;;-5.80;76.30;;;;;;4973438;28;20019;-79
2023/01/21 02:49:29;;;;;;;31.35;18.42;;;-5.80;75.80;;;;;;4975891;28;20035;-79
2023/01/21 02:51:56;;;;;;;29.65;18.33;;;-5.70;75.40;;;;;;4976596;28;20026;-85
2023/01/21 02:54:46;;;;;;;28.52;16.63;;;-5.70;75.20;;;;;;4953348;28;20038;-77
2023/01/21 02:57:16;;;;;;;26.88;16.15;;;-5.60;75.10;;;;;;4973945;28;20025;-79
2023/01/21 02:59:48;;;;;;;25.45;17.33;;;-5.50;74.90;;;;;;4955664;29;20029;-87
2023/01/21 03:02:29;;;;;;;28.13;16.80;;;-5.50;74.70;;;;;;4973051;29;20035;-88
2023/01/21 03:05:09;;;;;;;29.05;17.10;;;-5.40;74.00;;;;;;4973373;29;20031;-88
2023/01/21 03:07:54;;;;;;;30.02;17.40;;;-5.60;73.50;;;;;;4963349;28;20031;-80
2023/01/21 03:10:30;;;;;;;25.27;16.30;;;-5.60;74.10;;;;;;4964078;28;20027;-86
2023/01/21 03:19:17;;;;;;;26.15;15.02;;;-5.60;75.80;;;;;;4927551;28;20035;-82
2023/01/21 03:21:44;;;;;;;25.55;15.73;;;-5.60;76.00;;;;;;4981138;28;20110;-88
2023/01/21 03:24:13;;;;;;;26.27;16.65;;;-5.60;75.70;;;;;;4933512;28;20054;-85
2023/01/21 03:26:44;;;;;;;22.98;14.60;;;-5.60;75.00;;;;;;4953818;29;20029;-88
2023/01/21 03:29:18;;;;;;;22.80;14.32;;;-5.50;74.80;;;;;;4953199;28;20047;-87
2023/01/21 03:31:49;;;;;;;28.25;16.08;;;-5.50;74.10;;;;;;4953486;28;20031;-88
2023/01/21 03:34:17;;;;;;;23.80;14.52;;;-5.50;73.30;;;;;;5030101;28;20108;-90
2023/01/21 03:37:30;;;;;;;21.17;14.00;;;-5.50;73.30;;;;;;5071287;28;20062;-86
2023/01/21 03:40:06;;;;;;;25.17;14.65;;;-5.40;73.30;;;;;;5008490;28;20033;-90
2023/01/21 03:42:32;;;;;;;24.35;14.65;;;-5.40;73.10;;;;;;5040898;28;20116;-81
2023/01/21 03:44:58;;;;;;;28.05;15.27;;;-5.40;72.90;;;;;;5040708;28;20079;-82
2023/01/21 03:47:30;;;;;;;20.38;13.20;;;-5.40;72.80;;;;;;5040016;28;20432;-82
2023/01/21 03:50:12;;;;;;;22.77;15.27;;;-5.30;72.70;;;;;;5058069;28;20078;-86
2023/01/21 03:52:40;;;;;;;24.13;14.05;;;-5.20;72.40;;;;;;5040631;28;20052;-87
2023/01/21 03:55:10;;;;;;;21.33;14.30;;;-5.30;71.90;;;;;;5039977;28;20028;-75
2023/01/21 03:57:36;;;;;;;22.02;14.65;;;-5.30;72.00;;;;;;5040372;28;20029;-88
2023/01/21 04:00:05;;;;;;;27.15;14.75;;;-5.30;71.60;;;;;;5040073;28;20074;-81
2023/01/21 04:02:31;;;;;;;23.00;12.57;;;-5.30;71.80;;;;;;5039396;28;20492;-84
2023/01/21 04:04:57;;;;;;;23.48;13.43;;;-5.30;71.80;;;;;;5057021;28;20029;-76
2023/01/21 04:07:23;;;;;;;19.58;12.60;;;-5.40;71.70;;;;;;5038973;28;20031;-76
2023/01/21 04:09:49;;;;;;;19.77;13.05;;;-5.40;71.80;;;;;;5039489;28;20028;-83
2023/01/21 04:12:16;;;;;;;22.23;14.45;;;-5.40;71.80;;;;;;5055639;28;20120;-77
2023/01/21 04:14:41;;;;;;;25.05;14.70;;;-5.40;71.80;;;;;;5038841;28;20043;-80
2023/01/21 04:17:07;;;;;;;26.92;13.80;;;-5.40;72.00;;;;;;5044955;28;20104;-77
2023/01/21 04:19:32;;;;;;;21.83;13.55;;;-5.40;71.90;;;;;;5048670;28;20047;-76
2023/01/21 04:21:58;;;;;;;22.63;13.93;;;-5.30;72.00;;;;;;5047679;28;20029;-77
2023/01/21 04:24:24;;;;;;;21.55;13.60;;;-5.30;72.00;;;;;;5045816;28;20025;-75
2023/01/21 04:26:49;;;;;;;26.52;14.00;;;-5.30;72.00;;;;;;5047178;28;20116;-73
2023/01/21 04:29:16;;;;;;;22.33;13.48;;;-5.30;71.80;;;;;;5048968;28;20051;-76
2023/01/21 04:31:42;;;;;;;20.58;13.27;;;-5.20;71.70;;;;;;5046575;28;20057;-81
2023/01/21 04:34:08;;;;;;;23.88;12.77;;;-5.20;71.20;;;;;;5043594;28;20061;-75
2023/01/21 04:36:33;;;;;;;19.73;12.68;;;-5.20;71.00;;;;;;4971738;28;20030;-79
2023/01/21 04:38:59;;;;;;;19.25;13.00;;;-5.30;71.10;;;;;;4969822;28;20046;-76
2023/01/21 04:41:24;;;;;;;20.70;12.40;;;-5.40;71.20;;;;;;4969008;28;20263;-81
2023/01/21 04:43:50;;;;;;;21.15;12.70;;;-5.50;71.90;;;;;;4970707;28;20034;-79
2023/01/21 04:46:15;;;;;;;20.48;11.85;;;-5.50;72.50;;;;;;4979815;28;20094;-75
2023/01/21 04:48:41;;;;;;;22.92;11.55;;;-5.50;72.50;;;;;;4980686;28;20061;-75
2023/01/21 04:51:07;;;;;;;17.83;11.73;;;-5.40;72.50;;;;;;4979611;28;20057;-76
2023/01/21 04:53:33;;;;;;;18.35;12.27;;;-5.40;72.20;;;;;;4970582;28;20029;-74
2023/01/21 04:55:58;;;;;;;17.75;11.95;;;-5.30;72.00;;;;;;4965867;28;20023;-80
2023/01/21 04:58:25;;;;;;;19.90;11.02;;;-5.30;71.80;;;;;;4971022;28;20487;-74
2023/01/21 05:00:53;;;;;;;16.08;11.35;;;-5.30;71.60;;;;;;4969395;28;20368;-84
2023/01/21 05:03:18;;;;;;;19.40;11.70;;;-5.20;71.60;;;;;;4962631;28;20054;-82
2023/01/21 05:05:44;;;;;;;19.88;11.65;;;-5.20;71.50;;;;;;4959941;28;20101;-83
2023/01/21 05:08:09;;;;;;;18.75;11.90;;;-5.20;71.30;;;;;;4960797;28;20034;-85
2023/01/21 05:10:35;;;;;;;21.92;12.68;;;-5.20;70.80;;;;;;4959252;28;20023;-75
2023/01/21 05:13:00;;;;;;;21.95;12.07;;;-5.10;70.80;;;;;;4956740;28;20487;-74
2023/01/21 05:15:26;;;;;;;22.52;13.68;;;-5.10;70.80;;;;;;4957399;28;20018;-76
2023/01/21 05:17:52;;;;;;;27.70;16.30;;;-5.00;70.70;;;;;;4956368;28;20039;-73
2023/01/21 05:20:17;;;;;;;27.55;16.67;;;-5.00;70.40;;;;;;4956476;28;20030;-74
2023/01/21 05:22:46;;;;;;;34.20;20.25;;;-5.00;70.10;;;;;;4958233;28;20027;-75
2023/01/21 05:25:12;;;;;;;34.80;20.35;;;-5.00;69.90;;;;;;4975524;28;20471;-77
2023/01/21 05:27:38;;;;;;;24.73;16.20;;;-5.00;69.80;;;;;;4956536;28;20041;-75
2023/01/21 05:30:04;;;;;;;24.98;15.65;;;-5.00;69.40;;;;;;4956767;28;20023;-76
2023/01/21 05:32:31;;;;;;;23.10;15.13;;;-5.00;69.50;;;;;;4956981;28;20540;-84
2023/01/21 05:34:57;;;;;;;20.50;14.63;;;-5.00;69.40;;;;;;4991320;28;20038;-81
2023/01/21 05:37:22;;;;;;;19.90;12.63;;;-5.00;69.30;;;;;;4976718;28;20076;-78
2023/01/21 05:39:48;;;;;;;16.65;11.38;;;-5.10;69.40;;;;;;4977253;28;20497;-85
2023/01/21 05:42:13;;;;;;;18.38;11.93;;;-5.00;69.30;;;;;;4977660;28;20125;-86
2023/01/21 05:44:39;;;;;;;19.13;11.02;;;-5.10;69.80;;;;;;4994730;28;20033;-82
2023/01/21 05:47:07;;;;;;;17.33;11.90;;;-5.10;68.70;;;;;;4977602;28;20026;-84
2023/01/21 05:49:33;;;;;;;20.40;12.70;;;-5.20;68.80;;;;;;4978971;28;20033;-75
2023/01/21 05:51:58;;;;;;;15.18;10.68;;;-5.20;68.90;;;;;;4979914;28;20089;-84
2023/01/21 05:54:24;;;;;;;20.55;13.13;;;-5.30;69.10;;;;;;4976448;28;20027;-87
2023/01/21 05:56:50;;;;;;;22.63;12.98;;;-5.30;69.30;;;;;;4960462;28;20034;-76
2023/01/21 05:59:15;;;;;;;19.13;11.77;;;-5.30;69.20;;;;;;4976695;28;20052;-76
2023/01/21 06:01:42;;;;;;;18.88;12.40;;;-5.30;69.20;;;;;;4976687;28;20065;-88
2023/01/21 06:04:08;;;;;;;20.08;12.63;;;-5.40;69.00;;;;;;4976499;28;20026;-82
2023/01/21 06:06:33;;;;;;;23.67;13.15;;;-5.40;69.00;;;;;;4977121;28;20023;-87
2023/01/21 06:08:59;;;;;;;23.98;14.77;;;-5.40;69.10;;;;;;4976605;28;20124;-89
2023/01/21 06:11:24;;;;;;;28.40;18.05;;;-5.40;69.00;;;;;;4976836;28;20058;-78
2023/01/21 06:13:50;;;;;;;24.33;15.27;;;-5.40;69.00;;;;;;4977317;28;20383;-87
2023/01/21 06:16:15;;;;;;;34.25;19.30;;;-5.40;68.90;;;;;;4978649;28;20381;-84
2023/01/21 06:18:41;;;;;;;40.65;22.40;;;-5.40;68.80;;;;;;4992871;28;20037;-77
2023/01/21 06:21:06;;;;;;;48.17;25.77;;;-5.40;69.00;;;;;;4995179;28;20069;-78
2023/01/21 06:23:32;;;;;;;37.28;22.15;;;-5.40;69.00;;;;;;4984984;28;20022;-89
2023/01/21 06:25:59;;;;;;;32.13;19.05;;;-5.40;69.10;;;;;;4993682;28;20053;-85
2023/01/21 06:28:25;;;;;;;28.83;17.23;;;-5.50;69.10;;;;;;4975614;28;20026;-82
2023/01/21 06:30:50;;;;;;;26.05;15.43;;;-5.50;69.20;;;;;;4975755;28;20099;-86
2023/01/21 06:33:16;;;;;;;25.60;15.18;;;-5.50;69.20;;;;;;4988838;28;20124;-76
2023/01/21 06:35:41;;;;;;;28.52;16.92;;;-5.50;69.20;;;;;;5041781;28;20493;-83
2023/01/21 06:38:07;;;;;;;29.52;16.20;;;-5.50;69.10;;;;;;4973375;28;20489;-80
2023/01/21 06:40:32;;;;;;;23.10;14.65;;;-5.60;68.90;;;;;;4974065;28;20027;-82
2023/01/21 06:42:59;;;;;;;21.60;13.13;;;-5.60;69.70;;;;;;5052459;28;20015;-77
2023/01/21 06:45:25;;;;;;;22.83;14.32;;;-5.60;69.60;;;;;;5057402;28;20045;-78
2023/01/21 06:47:51;;;;;;;20.40;13.02;;;-5.50;69.80;;;;;;5058306;28;20027;-79
2023/01/21 06:50:17;;;;;;;19.08;12.57;;;-5.50;69.60;;;;;;5049295;28;20030;-86
2023/01/21 06:52:44;;;;;;;19.65;12.02;;;-5.40;69.40;;;;;;5041610;28;20529;-90
2023/01/21 06:55:11;;;;;;;19.30;11.15;;;-5.30;70.10;;;;;;5041068;28;20041;-87
2023/01/21 06:57:37;;;;;;;16.63;10.73;;;-5.30;69.00;;;;;;5039944;28;20023;-80
2023/01/21 07:00:04;;;;;;;16.02;10.73;;;-5.30;68.70;;;;;;5039217;28;20055;-80
2023/01/21 07:02:29;;;;;;;16.05;10.88;;;-5.30;68.30;;;;;;5039600;28;20486;-75
2023/01/21 07:04:55;;;;;;;15.80;10.70;;;-5.30;68.20;;;;;;5055529;28;20023;-78
2023/01/21 07:07:20;;;;;;;19.15;11.90;;;-5.30;68.10;;;;;;4972658;28;20035;-85
2023/01/21 07:09:46;;;;;;;21.25;12.57;;;-5.30;68.10;;;;;;5039631;28;20023;-80
2023/01/21 07:12:12;;;;;;;39.60;21.73;;;-5.40;68.10;;;;;;5039187;28;20068;-87
2023/01/21 07:14:37;;;;;;;25.25;16.63;;;-5.50;68.00;;;;;;5039870;28;20026;-86
2023/01/21 07:17:03;;;;;;;26.20;16.80;;;-5.60;67.80;;;;;;5039921;28;20117;-84
2023/01/21 07:19:29;;;;;;;25.33;16.02;;;-5.80;68.20;;;;;;5040231;28;20035;-81
2023/01/21 07:21:54;;;;;;;24.42;14.07;;;-5.80;68.50;;;;;;5039819;28;20043;-77
2023/01/21 07:24:20;;;;;;;23.60;13.88;;;-5.80;69.00;;;;;;5039450;28;20109;-78
2023/01/21 07:26:47;;;;;;;19.63;12.20;;;-5.80;69.80;;;;;;5040253;28;20417;-88
2023/01/21 07:29:12;;;;;;;20.60;12.48;;;-5.70;69.70;;;;;;5040360;28;20023;-89
2023/01/21 07:31:38;;;;;;;22.13;14.38;;;-5.60;69.70;;;;;;5041206;28;20069;-88
2023/01/21 07:34:04;;;;;;;25.30;14.85;;;-5.60;69.50;;;;;;5006005;28;20043;-85
2023/01/21 07:36:29;;;;;;;27.67;15.48;;;-5.50;69.60;;;;;;4976937;28;20023;-86
2023/01/21 07:38:55;;;;;;;24.58;14.00;;;-5.40;69.70;;;;;;4976303;28;20018;-83
2023/01/21 07:41:21;;;;;;;20.15;12.35;;;-5.30;69.50;;;;;;4972947;28;20038;-81
2023/01/21 07:43:47;;;;;;;19.95;12.45;;;-5.10;69.10;;;;;;4993246;28;20090;-78
2023/01/21 07:46:21;;;;;;;18.02;11.85;;;-5.00;68.50;;;;;;4985019;28;20033;-76
2023/01/21 07:48:49;;;;;;;19.95;11.90;;;-5.00;68.10;;;;;;4991843;28;20006;-78
2023/01/21 07:51:14;;;;;;;18.05;10.70;;;-4.90;68.00;;;;;;4967377;28;20046;-80
2023/01/21 07:53:40;;;;;;;19.52;11.60;;;-4.70;68.00;;;;;;4978836;28;20022;-81
2023/01/21 07:56:07;;;;;;;18.02;11.40;;;-4.60;68.10;;;;;;4973399;28;20026;-77
2023/01/21 07:58:32;;;;;;;20.80;12.13;;;-4.50;68.00;;;;;;4974444;28;20030;-77
2023/01/21 08:00:58;;;;;;;20.67;12.05;;;-4.40;67.40;;;;;;4974465;28;20046;-82
2023/01/21 08:03:24;;;;;;;33.28;17.08;;;-4.30;67.40;;;;;;4973867;28;20019;-76
2023/01/21 08:05:50;;;;;;;24.05;15.82;;;-3.50;86.50;;;;;;4973132;28;20023;-76
2023/01/21 08:08:17;;;;;;;22.00;14.10;;;-3.10;86.70;;;;;;4973102;28;20148;-74
2023/01/21 08:10:43;;;;;;;25.13;13.60;;;-3.00;79.10;;;;;;4973158;28;20084;-75
2023/01/21 08:13:08;;;;;;;24.73;14.13;;;-2.90;71.90;;;;;;4972979;28;20026;-79
2023/01/21 08:15:34;;;;;;;23.02;14.48;;;-2.70;69.30;;;;;;4990313;28;20513;-76
2023/01/21 08:17:59;;;;;;;27.15;15.20;;;-2.60;67.50;;;;;;4973309;28;20018;-79
2023/01/21 08:20:25;;;;;;;26.58;15.27;;;-2.30;67.50;;;;;;4990959;28;20069;-86
2023/01/21 08:22:51;;;;;;;23.50;14.57;;;-2.20;65.50;;;;;;4978823;28;20121;-80
2023/01/21 08:25:17;;;;;;;25.48;17.02;;;-2.30;64.00;;;;;;4976999;28;20359;-74
2023/01/21 08:27:43;;;;;;;28.35;19.33;;;-2.40;63.20;;;;;;4976625;28;20026;-74
2023/01/21 08:30:09;;;;;;;31.05;20.77;;;-2.80;62.30;;;;;;4986751;28;20033;-77
2023/01/21 08:32:35;;;;;;;30.58;20.30;;;-3.10;62.80;;;;;;4982746;28;20034;-75
2023/01/21 08:35:00;;;;;;;30.33;21.27;;;-3.10;63.60;;;;;;4976584;28;20027;-74
2023/01/21 08:37:26;;;;;;;29.98;20.73;;;-3.20;63.60;;;;;;4976602;28;20069;-74
2023/01/21 08:39:52;;;;;;;28.30;18.70;;;-3.30;64.00;;;;;;4975865;28;20387;-76
2023/01/21 08:42:19;;;;;;;26.92;17.63;;;-3.40;64.20;;;;;;4975804;28;20034;-75
2023/01/21 08:44:45;;;;;;;37.35;23.27;;;-3.50;64.90;;;;;;4975861;28;20517;-75
2023/01/21 08:47:10;;;;;;;43.05;26.08;;;-3.60;65.90;;;;;;4975673;28;20475;-75
2023/01/21 08:49:36;;;;;;;48.72;29.02;;;-3.60;66.40;;;;;;4975222;28;20022;-78
2023/01/21 08:52:02;;;;;;;51.10;29.95;;;-3.60;66.40;;;;;;4959906;28;20038;-75
2023/01/21 08:54:27;;;;;;;41.80;23.70;;;-3.60;66.90;;;;;;4976053;28;20060;-75
2023/01/21 08:56:53;;;;;;;35.97;22.17;;;-3.60;67.00;;;;;;4976010;28;20026;-81
2023/01/21 08:59:26;;;;;;;34.22;22.38;;;-3.70;67.70;;;;;;4976018;28;20029;-75
2023/01/21 09:01:52;;;;;;;44.22;22.85;;;-3.60;68.20;;;;;;4976015;28;20122;-75
2023/01/21 09:04:17;;;;;;;33.40;22.13;;;-3.60;68.80;;;;;;4992676;28;20073;-74
2023/01/21 09:06:43;;;;;;;30.33;20.25;;;-3.60;69.80;;;;;;4976084;28;20029;-74
2023/01/21 09:09:10;;;;;;;29.60;20.17;;;-3.60;70.90;;;;;;4975649;28;20026;-76
2023/01/21 09:11:35;;;;;;;28.15;18.70;;;-3.40;70.20;;;;;;4975485;28;20168;-75
2023/01/21 09:14:02;;;;;;;28.17;17.83;;;-3.40;70.20;;;;;;4975356;28;20125;-74
2023/01/21 09:16:32;;;;;;;35.83;21.00;;;-3.30;70.40;;;;;;4995004;28;20023;-75
2023/01/21 09:18:58;;;;;;;29.50;20.13;;;-3.20;70.70;;;;;;4993000;28;20027;-80
2023/01/21 09:21:25;;;;;;;29.63;21.55;;;-3.20;71.00;;;;;;4992816;28;20114;-83
2023/01/21 09:23:50;;;;;;;33.03;21.67;;;-3.00;70.90;;;;;;4993107;28;20360;-83
2023/01/21 09:26:17;;;;;;;35.60;23.15;;;-3.00;71.10;;;;;;4993662;28;20109;-74
2023/01/21 09:28:45;;;;;;;32.63;20.65;;;-3.10;71.70;;;;;;4992324;28;20037;-76
2023/01/21 09:31:14;;;;;;;36.05;23.38;;;-3.10;72.00;;;;;;4974882;28;20030;-77
2023/01/21 09:33:43;;;;;;;41.08;23.60;;;-3.20;72.10;;;;;;4991239;28;20117;-74
2023/01/21 09:36:13;;;;;;;42.70;24.15;;;-3.30;73.20;;;;;;4974926;28;20474;-75
2023/01/21 09:38:41;;;;;;;37.83;24.42;;;-3.30;73.70;;;;;;4992141;28;20030;-75
2023/01/21 09:41:36;;;;;;;39.75;25.08;;;-3.20;73.60;;;;;;4987499;28;20395;-74
2023/01/21 09:44:10;;;;;;;54.53;26.70;;;-3.30;73.70;;;;;;4986204;28;20018;-74
2023/01/21 09:46:43;;;;;;;44.70;27.60;;;-3.30;74.30;;;;;;4983541;28;20014;-75
2023/01/21 09:49:16;;;;;;;51.22;30.27;;;-3.30;74.60;;;;;;4982692;28;20052;-77
2023/01/21 09:51:57;;;;;;;54.28;28.58;;;-3.40;76.00;;;;;;4965558;28;20513;-81
2023/01/21 09:54:29;;;;;;;49.60;27.20;;;-3.60;76.70;;;;;;5071714;28;20364;-74
2023/01/21 09:57:13;;;;;;;57.05;28.75;;;-3.60;77.70;;;;;;4967634;28;20030;-73
2023/01/21 10:00:00;;;;;;;53.67;27.63;;;-3.40;77.60;;;;;;4984331;28;20080;-75
2023/01/21 10:02:49;;;;;;;53.78;29.98;;;-3.10;77.50;;;;;;4984299;28;20043;-79
2023/01/21 10:05:24;;;;;;;51.40;29.10;;;-2.80;76.30;;;;;;4983680;28;20021;-83
2023/01/21 10:08:20;;;;;;;51.10;29.30;;;-2.70;75.70;;;;;;4985365;28;20449;-89
2023/01/21 10:10:51;;;;;;;51.20;28.13;;;-2.50;74.90;;;;;;4984927;28;20739;-82
2023/01/21 10:13:33;;;;;;;48.28;28.05;;;-2.30;74.20;;;;;;4988690;28;20042;-78
2023/01/21 10:16:17;;;;;;;52.60;30.23;;;-2.30;73.50;;;;;;4983890;28;20026;-77
2023/01/21 10:18:46;;;;;;;51.80;28.92;;;-2.40;74.20;;;;;;4983611;28;20027;-75
2023/01/21 10:21:35;;;;;;;56.35;31.45;;;-2.40;74.30;;;;;;4982445;28;20034;-75
2023/01/21 10:24:15;;;;;;;56.47;32.03;;;-2.30;74.70;;;;;;4981950;28;20014;-75
2023/01/21 10:26:43;;;;;;;55.97;32.53;;;-2.40;74.80;;;;;;4983341;28;20023;-75
2023/01/21 10:29:15;;;;;;;56.80;32.10;;;-2.50;75.50;;;;;;4982399;28;20058;-75
2023/01/21 10:31:49;;;;;;;62.30;34.15;;;-2.60;76.50;;;;;;4967220;28;20019;-75
2023/01/21 10:34:18;;;;;;;55.30;31.53;;;-2.60;76.50;;;;;;5040102;28;20140;-78
2023/01/21 10:37:10;;;;;;;61.13;32.42;;;-2.60;77.10;;;;;;5068179;28;20264;-79
2023/01/21 10:40:03;;;;;;;59.72;32.40;;;-2.50;76.40;;;;;;5070612;28;20486;-81
2023/01/21 10:42:42;;;;;;;64.72;35.10;;;-2.40;76.70;;;;;;5068147;28;20029;-80
2023/01/21 10:45:28;;;;;;;71.63;37.08;;;-2.40;77.10;;;;;;5058195;28;20051;-78
2023/01/21 10:48:14;;;;;;;69.55;36.10;;;-2.40;77.40;;;;;;5065499;28;20024;-78
2023/01/21 10:50:57;;;;;;;51.65;23.98;;;-2.30;78.70;;;;;;5066792;28;20031;-82
2023/01/21 10:53:48;;;;;;;89.88;45.92;;;-1.70;85.60;;;;;;5048493;28;20021;-83
2023/01/21 10:56:23;;;;;;;70.15;35.40;;;-0.50;95.10;;;;;;5065972;28;20032;-87
2023/01/21 10:58:48;;;;;;;;;;;0.20;89.40;;;;;;5045997;28;20020;-88
2023/01/21 11:01:22;;;;;;;56.90;31.00;;;0.90;83.20;;;;;;5046840;28;19908;-83
2023/01/21 11:03:55;;;;;;;58.75;30.30;;;1.40;73.10;;;;;;5063720;28;20059;-82
2023/01/21 11:06:22;;;;;;;72.20;32.08;;;1.60;70.20;;;;;;5067169;28;20021;-82
2023/01/21 11:08:53;;;;;;;62.00;32.05;;;1.50;68.90;;;;;;5058323;28;20025;-83
2023/01/21 11:11:28;;;;;;;56.72;30.08;;;1.30;68.30;;;;;;5074283;28;20032;-79
2023/01/21 11:13:54;;;;;;;63.05;29.55;;;1.30;70.00;;;;;;5074098;28;20465;-79
2023/01/21 11:16:34;;;;;;;51.08;30.35;;;1.30;68.40;;;;;;5072771;28;20028;-75
2023/01/21 11:19:02;;;;;;;55.15;31.70;;;0.90;66.20;;;;;;5072981;28;20435;-75
2023/01/21 11:21:27;;;;;;;55.83;33.55;;;0.50;66.40;;;;;;5072442;28;20112;-75
2023/01/21 11:23:56;;;;;;;57.97;34.65;;;-0.10;67.20;;;;;;5072359;28;20063;-75
2023/01/21 11:26:28;;;;;;;50.78;30.83;;;-0.40;68.40;;;;;;5072215;28;20025;-75
2023/01/21 11:29:13;;;;;;;55.88;34.72;;;-0.60;70.20;;;;;;5072621;28;20085;-76
2023/01/21 11:31:40;;;;;;;61.70;36.60;;;-0.80;71.50;;;;;;5073127;28;20039;-77
2023/01/21 11:34:15;;;;;;;59.60;36.00;;;-1.00;73.20;;;;;;5073223;28;20041;-77
2023/01/21 11:37:03;;;;;;;62.38;38.80;;;-1.00;73.90;;;;;;5058171;28;20579;-77
2023/01/21 11:39:31;;;;;;;66.47;39.83;;;-1.20;74.30;;;;;;5073802;28;20028;-76
2023/01/21 11:42:07;;;;;;;71.03;39.15;;;-1.40;75.40;;;;;;5054941;28;20510;-77
2023/01/21 11:44:33;;;;;;;;;;;-1.50;76.30;;;;;;5073513;28;20604;-76
2023/01/21 11:46:59;;;;;;;76.30;40.05;;;-1.70;77.10;;;;;;5074235;28;19905;-77
2023/01/21 11:49:31;;;;;;;64.63;37.45;;;-1.70;77.90;;;;;;5081452;28;20025;-80
2023/01/21 11:52:13;;;;;;;68.55;39.28;;;-1.70;78.00;;;;;;5063518;28;20106;-82
2023/01/21 11:54:39;;;;;;;77.55;42.38;;;-1.80;78.20;;;;;;5073564;28;20036;-81
2023/01/21 11:57:15;;;;;;;69.15;39.38;;;-1.90;78.60;;;;;;5076292;28;20031;-81
2023/01/21 11:59:46;;;;;;;64.35;38.55;;;-1.90;78.70;;;;;;5059544;28;20633;-81
2023/01/21 12:02:15;;;;;;;78.57;42.90;;;-1.90;78.70;;;;;;5077553;28;20435;-82
2023/01/21 12:04:58;;;;;;;74.05;40.35;;;-1.80;79.40;;;;;;5060704;28;20024;-82
2023/01/21 12:07:28;;;;;;;70.43;39.35;;;-1.90;78.80;;;;;;5077759;28;20029;-78
2023/01/21 12:10:12;;;;;;;68.07;39.30;;;-1.90;79.00;;;;;;5059576;28;20028;-81
2023/01/21 12:13:12;;;;;;;72.75;40.92;;;-1.90;79.00;;;;;;5076987;28;20035;-81
2023/01/21 12:15:37;;;;;;;69.88;40.40;;;-1.90;79.00;;;;;;5076017;28;20047;-75
2023/01/21 12:18:42;;;;;;;67.82;39.80;;;-2.00;79.20;;;;;;5075848;28;20100;-76
2023/01/21 12:21:23;;;;;;;60.40;37.00;;;-2.00;79.60;;;;;;5071928;28;20045;-74
2023/01/21 12:23:58;;;;;;;61.42;36.70;;;-2.00;80.00;;;;;;5075652;28;20028;-74
2023/01/21 12:27:08;;;;;;;61.38;36.58;;;-1.90;79.80;;;;;;5075919;28;20103;-75
2023/01/21 12:30:01;;;;;;;59.97;34.95;;;-1.80;79.60;;;;;;5037966;28;20121;-75
2023/01/21 12:33:15;;;;;;;68.60;38.00;;;-1.70;79.50;;;;;;5075693;28;20510;-75
2023/01/21 12:35:46;;;;;;;57.58;34.10;;;-1.70;79.30;;;;;;4978004;28;20119;-79
2023/01/21 12:38:26;;;;;;;58.08;35.50;;;-1.80;79.30;;;;;;4973900;28;20109;-75
2023/01/21 12:41:03;;;;;;;61.30;35.38;;;-1.80;79.30;;;;;;4973309;28;20114;-80
2023/01/21 12:43:39;;;;;;;63.30;36.58;;;-1.80;79.30;;;;;;4967065;28;20514;-78
2023/01/21 12:46:28;;;;;;;58.03;37.33;;;-1.70;79.50;;;;;;4966770;28;20066;-77
2023/01/21 12:49:11;;;;;;;58.25;35.30;;;-1.60;79.60;;;;;;4965313;28;20019;-79
2023/01/21 12:51:41;;;;;;;53.83;33.25;;;-1.50;79.60;;;;;;4966118;28;20024;-76
2023/01/21 12:54:34;;;;;;;63.40;37.15;;;-1.50;79.50;;;;;;4959991;28;20373;-78